sensor_id;sensor_type;location;lat;lon;timestamp;P1;durP1;ratioP1;P2;durP2;ratioP2
70543;SDS011;58097;48.364;-1.224;2023-08-12T00:01:15;1.95;;;1.60;;
70543;SDS011;58097;48.364;-1.224;2023-08-12T00:03:41;5.18;;;1.58;;
70543;SDS011;58097;48.364;-1.224;2023-08-12T00:06:07;2.47;;;1.70;;
70543;SDS011;58097;48.364;-1.224;2023-08-12T00:08:32;4.25;;;1.60;;
70543;SDS011;58097;48.364;-1.224;2023-08-12T00:10:58;3.63;;;1.67;;
70543;SDS011;58097;48.364;-1.224;2023-08-12T00:13:23;2.03;;;1.27;;
70543;SDS011;58097;48.364;-1.224;2023-08-12T00:15:49;1.67;;;1.23;;
70543;SDS011;58097;48.364;-1.224;2023-08-12T00:18:14;2.03;;;1.25;;
70543;SDS011;58097;48.364;-1.224;2023-08-12T00:20:40;1.60;;;1.50;;
70543;SDS011;58097;48.364;-1.224;2023-08-12T00:23:07;1.52;;;1.27;;
70543;SDS011;58097;48.364;-1.224;2023-08-12T00:25:32;1.98;;;1.25;;
70543;SDS011;58097;48.364;-1.224;2023-08-12T00:27:58;1.63;;;1.30;;
70543;SDS011;58097;48.364;-1.224;2023-08-12T00:30:23;2.33;;;1.25;;
70543;SDS011;58097;48.364;-1.224;2023-08-12T00:32:48;1.27;;;1.15;;
70543;SDS011;58097;48.364;-1.224;2023-08-12T00:35:14;1.52;;;1.30;;
70543;SDS011;58097;48.364;-1.224;2023-08-12T00:37:39;1.30;;;1.20;;
70543;SDS011;58097;48.364;-1.224;2023-08-12T00:40:05;1.83;;;1.30;;
70543;SDS011;58097;48.364;-1.224;2023-08-12T00:42:31;1.38;;;1.25;;
70543;SDS011;58097;48.364;-1.224;2023-08-12T00:44:57;2.67;;;1.40;;
70543;SDS011;58097;48.364;-1.224;2023-08-12T00:47:23;1.48;;;1.13;;
70543;SDS011;58097;48.364;-1.224;2023-08-12T00:49:48;1.63;;;1.00;;
70543;SDS011;58097;48.364;-1.224;2023-08-12T00:52:14;1.38;;;1.27;;
70543;SDS011;58097;48.364;-1.224;2023-08-12T00:54:42;1.00;;;0.90;;
70543;SDS011;58097;48.364;-1.224;2023-08-12T00:57:07;2.85;;;1.25;;
70543;SDS011;58097;48.364;-1.224;2023-08-12T00:59:34;4.90;;;1.60;;
70543;SDS011;58097;48.364;-1.224;2023-08-12T01:02:00;2.78;;;1.23;;
70543;SDS011;58097;48.364;-1.224;2023-08-12T01:04:26;6.13;;;1.60;;
70543;SDS011;58097;48.364;-1.224;2023-08-12T01:06:52;2.15;;;1.48;;
70543;SDS011;58097;48.364;-1.224;2023-08-12T01:09:17;1.88;;;1.10;;
70543;SDS011;58097;48.364;-1.224;2023-08-12T01:14:22;3.15;;;1.55;;
70543;SDS011;58097;48.364;-1.224;2023-08-12T01:16:54;2.97;;;1.20;;
70543;SDS011;58097;48.364;-1.224;2023-08-12T01:19:34;5.47;;;1.10;;
70543;SDS011;58097;48.364;-1.224;2023-08-12T01:22:01;3.72;;;0.90;;
70543;SDS011;58097;48.364;-1.224;2023-08-12T01:24:37;7.38;;;1.40;;
70543;SDS011;58097;48.364;-1.224;2023-08-12T01:27:08;1.30;;;1.08;;
70543;SDS011;58097;48.364;-1.224;2023-08-12T01:29:35;5.15;;;1.75;;
70543;SDS011;58097;48.364;-1.224;2023-08-12T01:35:08;1.83;;;1.00;;
70543;SDS011;58097;48.364;-1.224;2023-08-12T01:37:40;1.77;;;1.30;;
70543;SDS011;58097;48.364;-1.224;2023-08-12T01:40:07;1.88;;;1.20;;
70543;SDS011;58097;48.364;-1.224;2023-08-12T01:42:35;2.40;;;1.27;;
70543;SDS011;58097;48.364;-1.224;2023-08-12T01:45:01;1.88;;;1.17;;
70543;SDS011;58097;48.364;-1.224;2023-08-12T01:47:28;1.20;;;1.10;;
70543;SDS011;58097;48.364;-1.224;2023-08-12T01:49:54;3.38;;;1.50;;
70543;SDS011;58097;48.364;-1.224;2023-08-12T01:52:20;5.50;;;1.10;;
70543;SDS011;58097;48.364;-1.224;2023-08-12T01:54:45;2.08;;;1.08;;
70543;SDS011;58097;48.364;-1.224;2023-08-12T01:57:10;3.05;;;1.13;;
70543;SDS011;58097;48.364;-1.224;2023-08-12T01:59:36;1.35;;;1.00;;
70543;SDS011;58097;48.364;-1.224;2023-08-12T02:02:02;4.88;;;1.48;;
70543;SDS011;58097;48.364;-1.224;2023-08-12T02:04:28;1.02;;;0.80;;
70543;SDS011;58097;48.364;-1.224;2023-08-12T02:06:54;3.05;;;1.13;;
70543;SDS011;58097;48.364;-1.224;2023-08-12T02:09:19;1.40;;;1.02;;
70543;SDS011;58097;48.364;-1.224;2023-08-12T02:11:45;1.92;;;1.40;;
70543;SDS011;58097;48.364;-1.224;2023-08-12T02:14:11;1.70;;;1.17;;
70543;SDS011;58097;48.364;-1.224;2023-08-12T02:16:37;2.20;;;1.33;;
70543;SDS011;58097;48.364;-1.224;2023-08-12T02:19:02;3.60;;;1.85;;
70543;SDS011;58097;48.364;-1.224;2023-08-12T02:21:28;3.25;;;1.40;;
70543;SDS011;58097;48.364;-1.224;2023-08-12T02:23:53;3.40;;;1.52;;
70543;SDS011;58097;48.364;-1.224;2023-08-12T02:26:18;3.95;;;1.60;;
70543;SDS011;58097;48.364;-1.224;2023-08-12T02:28:44;3.65;;;1.80;;
70543;SDS011;58097;48.364;-1.224;2023-08-12T02:31:09;3.65;;;1.80;;
70543;SDS011;58097;48.364;-1.224;2023-08-12T02:33:34;1.55;;;1.42;;
70543;SDS011;58097;48.364;-1.224;2023-08-12T02:36:00;2.50;;;1.77;;
70543;SDS011;58097;48.364;-1.224;2023-08-12T02:38:25;4.07;;;1.85;;
70543;SDS011;58097;48.364;-1.224;2023-08-12T02:40:50;4.25;;;1.65;;
70543;SDS011;58097;48.364;-1.224;2023-08-12T02:43:16;2.38;;;1.73;;
70543;SDS011;58097;48.364;-1.224;2023-08-12T02:45:42;4.35;;;1.92;;
70543;SDS011;58097;48.364;-1.224;2023-08-12T02:48:09;3.30;;;1.77;;
70543;SDS011;58097;48.364;-1.224;2023-08-12T02:50:35;3.47;;;1.70;;
70543;SDS011;58097;48.364;-1.224;2023-08-12T02:53:00;5.47;;;1.67;;
70543;SDS011;58097;48.364;-1.224;2023-08-12T02:55:25;2.53;;;1.60;;
70543;SDS011;58097;48.364;-1.224;2023-08-12T02:57:51;3.97;;;1.83;;
70543;SDS011;58097;48.364;-1.224;2023-08-12T03:00:16;4.43;;;1.92;;
70543;SDS011;58097;48.364;-1.224;2023-08-12T03:02:42;3.97;;;1.55;;
70543;SDS011;58097;48.364;-1.224;2023-08-12T03:05:08;5.75;;;2.03;;
70543;SDS011;58097;48.364;-1.224;2023-08-12T03:07:33;6.20;;;1.75;;
70543;SDS011;58097;48.364;-1.224;2023-08-12T03:09:59;8.07;;;1.80;;
70543;SDS011;58097;48.364;-1.224;2023-08-12T03:12:24;10.35;;;2.58;;
70543;SDS011;58097;48.364;-1.224;2023-08-12T03:14:49;5.88;;;2.38;;
70543;SDS011;58097;48.364;-1.224;2023-08-12T03:17:15;2.28;;;1.55;;
70543;SDS011;58097;48.364;-1.224;2023-08-12T03:19:40;3.42;;;1.80;;
70543;SDS011;58097;48.364;-1.224;2023-08-12T03:22:05;6.90;;;1.80;;
70543;SDS011;58097;48.364;-1.224;2023-08-12T03:24:31;7.63;;;2.80;;
70543;SDS011;58097;48.364;-1.224;2023-08-12T03:26:56;4.93;;;1.98;;
70543;SDS011;58097;48.364;-1.224;2023-08-12T03:29:21;7.60;;;1.92;;
70543;SDS011;58097;48.364;-1.224;2023-08-12T03:31:47;2.22;;;1.40;;
70543;SDS011;58097;48.364;-1.224;2023-08-12T03:34:12;5.82;;;1.85;;
70543;SDS011;58097;48.364;-1.224;2023-08-12T03:36:37;2.83;;;1.75;;
70543;SDS011;58097;48.364;-1.224;2023-08-12T03:39:03;2.95;;;1.80;;
70543;SDS011;58097;48.364;-1.224;2023-08-12T03:41:28;5.00;;;2.20;;
70543;SDS011;58097;48.364;-1.224;2023-08-12T03:43:54;6.22;;;2.20;;
70543;SDS011;58097;48.364;-1.224;2023-08-12T03:46:19;5.85;;;2.42;;
70543;SDS011;58097;48.364;-1.224;2023-08-12T03:48:45;5.57;;;2.38;;
70543;SDS011;58097;48.364;-1.224;2023-08-12T03:51:10;3.67;;;2.30;;
70543;SDS011;58097;48.364;-1.224;2023-08-12T03:53:35;5.35;;;2.70;;
70543;SDS011;58097;48.364;-1.224;2023-08-12T03:56:01;5.45;;;2.58;;
70543;SDS011;58097;48.364;-1.224;2023-08-12T03:58:26;5.28;;;2.17;;
70543;SDS011;58097;48.364;-1.224;2023-08-12T04:00:52;5.60;;;2.72;;
70543;SDS011;58097;48.364;-1.224;2023-08-12T04:03:17;4.75;;;2.88;;
70543;SDS011;58097;48.364;-1.224;2023-08-12T04:05:51;8.27;;;2.58;;
70543;SDS011;58097;48.364;-1.224;2023-08-12T04:08:21;7.05;;;2.47;;
70543;SDS011;58097;48.364;-1.224;2023-08-12T04:10:48;6.45;;;2.58;;
70543;SDS011;58097;48.364;-1.224;2023-08-12T04:13:13;6.28;;;2.55;;
70543;SDS011;58097;48.364;-1.224;2023-08-12T04:15:40;6.65;;;2.38;;
70543;SDS011;58097;48.364;-1.224;2023-08-12T04:18:05;7.75;;;2.05;;
70543;SDS011;58097;48.364;-1.224;2023-08-12T04:20:31;8.82;;;2.28;;
70543;SDS011;58097;48.364;-1.224;2023-08-12T04:22:56;5.55;;;2.70;;
70543;SDS011;58097;48.364;-1.224;2023-08-12T04:25:22;7.28;;;2.88;;
70543;SDS011;58097;48.364;-1.224;2023-08-12T04:27:47;5.80;;;2.38;;
70543;SDS011;58097;48.364;-1.224;2023-08-12T04:30:14;6.22;;;2.85;;
70543;SDS011;58097;48.364;-1.224;2023-08-12T04:32:41;7.68;;;2.53;;
70543;SDS011;58097;48.364;-1.224;2023-08-12T04:35:06;3.00;;;2.38;;
70543;SDS011;58097;48.364;-1.224;2023-08-12T04:37:32;4.80;;;2.50;;
70543;SDS011;58097;48.364;-1.224;2023-08-12T04:39:57;9.68;;;3.03;;
70543;SDS011;58097;48.364;-1.224;2023-08-12T04:42:23;7.85;;;3.67;;
70543;SDS011;58097;48.364;-1.224;2023-08-12T04:44:49;5.50;;;3.10;;
70543;SDS011;58097;48.364;-1.224;2023-08-12T04:47:15;5.57;;;2.83;;
70543;SDS011;58097;48.364;-1.224;2023-08-12T04:49:40;6.88;;;2.72;;
70543;SDS011;58097;48.364;-1.224;2023-08-12T04:52:06;5.47;;;2.67;;
70543;SDS011;58097;48.364;-1.224;2023-08-12T04:54:32;5.75;;;2.30;;
70543;SDS011;58097;48.364;-1.224;2023-08-12T04:56:57;7.25;;;2.92;;
70543;SDS011;58097;48.364;-1.224;2023-08-12T04:59:24;7.85;;;2.83;;
70543;SDS011;58097;48.364;-1.224;2023-08-12T05:01:49;3.60;;;2.50;;
70543;SDS011;58097;48.364;-1.224;2023-08-12T05:04:14;3.72;;;3.00;;
70543;SDS011;58097;48.364;-1.224;2023-08-12T05:06:40;5.25;;;2.53;;
70543;SDS011;58097;48.364;-1.224;2023-08-12T05:09:05;9.05;;;2.78;;
70543;SDS011;58097;48.364;-1.224;2023-08-12T05:11:30;8.80;;;2.42;;
70543;SDS011;58097;48.364;-1.224;2023-08-12T05:13:56;5.63;;;2.72;;
70543;SDS011;58097;48.364;-1.224;2023-08-12T05:16:21;4.18;;;2.50;;
70543;SDS011;58097;48.364;-1.224;2023-08-12T05:18:47;4.88;;;2.50;;
70543;SDS011;58097;48.364;-1.224;2023-08-12T05:21:12;4.05;;;2.55;;
70543;SDS011;58097;48.364;-1.224;2023-08-12T05:23:38;5.78;;;2.25;;
70543;SDS011;58097;48.364;-1.224;2023-08-12T05:26:03;3.72;;;2.47;;
70543;SDS011;58097;48.364;-1.224;2023-08-12T05:28:28;12.48;;;2.75;;
70543;SDS011;58097;48.364;-1.224;2023-08-12T05:30:54;7.65;;;2.97;;
70543;SDS011;58097;48.364;-1.224;2023-08-12T05:33:22;9.15;;;2.80;;
70543;SDS011;58097;48.364;-1.224;2023-08-12T05:35:48;4.88;;;2.17;;
70543;SDS011;58097;48.364;-1.224;2023-08-12T05:38:13;5.90;;;2.75;;
70543;SDS011;58097;48.364;-1.224;2023-08-12T05:40:38;6.95;;;2.70;;
70543;SDS011;58097;48.364;-1.224;2023-08-12T05:43:04;6.35;;;2.85;;
70543;SDS011;58097;48.364;-1.224;2023-08-12T05:45:29;8.05;;;3.17;;
70543;SDS011;58097;48.364;-1.224;2023-08-12T05:47:55;9.02;;;3.08;;
70543;SDS011;58097;48.364;-1.224;2023-08-12T05:50:20;3.78;;;2.67;;
70543;SDS011;58097;48.364;-1.224;2023-08-12T05:52:46;4.53;;;2.63;;
70543;SDS011;58097;48.364;-1.224;2023-08-12T05:55:11;8.70;;;3.17;;
70543;SDS011;58097;48.364;-1.224;2023-08-12T05:57:37;5.00;;;3.17;;
70543;SDS011;58097;48.364;-1.224;2023-08-12T06:00:02;6.28;;;2.67;;
70543;SDS011;58097;48.364;-1.224;2023-08-12T06:02:28;9.45;;;2.78;;
70543;SDS011;58097;48.364;-1.224;2023-08-12T06:04:53;6.00;;;2.38;;
70543;SDS011;58097;48.364;-1.224;2023-08-12T06:07:18;4.40;;;3.13;;
70543;SDS011;58097;48.364;-1.224;2023-08-12T06:09:44;7.50;;;2.97;;
70543;SDS011;58097;48.364;-1.224;2023-08-12T06:12:09;4.47;;;3.05;;
70543;SDS011;58097;48.364;-1.224;2023-08-12T06:14:38;11.95;;;3.38;;
70543;SDS011;58097;48.364;-1.224;2023-08-12T06:17:04;7.95;;;3.10;;
70543;SDS011;58097;48.364;-1.224;2023-08-12T06:19:29;6.95;;;3.33;;
70543;SDS011;58097;48.364;-1.224;2023-08-12T06:21:55;3.25;;;2.53;;
70543;SDS011;58097;48.364;-1.224;2023-08-12T06:24:20;11.77;;;3.67;;
70543;SDS011;58097;48.364;-1.224;2023-08-12T06:26:46;6.40;;;3.25;;
70543;SDS011;58097;48.364;-1.224;2023-08-12T06:29:11;6.97;;;3.03;;
70543;SDS011;58097;48.364;-1.224;2023-08-12T06:31:36;7.55;;;3.90;;
70543;SDS011;58097;48.364;-1.224;2023-08-12T06:34:02;5.70;;;3.00;;
70543;SDS011;58097;48.364;-1.224;2023-08-12T06:36:27;6.47;;;3.13;;
70543;SDS011;58097;48.364;-1.224;2023-08-12T06:38:52;8.05;;;3.35;;
70543;SDS011;58097;48.364;-1.224;2023-08-12T06:41:18;10.15;;;3.08;;
70543;SDS011;58097;48.364;-1.224;2023-08-12T06:43:43;7.30;;;3.05;;
70543;SDS011;58097;48.364;-1.224;2023-08-12T06:46:08;10.23;;;3.28;;
70543;SDS011;58097;48.364;-1.224;2023-08-12T06:48:34;10.55;;;2.95;;
70543;SDS011;58097;48.364;-1.224;2023-08-12T06:50:59;6.07;;;2.85;;
70543;SDS011;58097;48.364;-1.224;2023-08-12T06:53:25;10.77;;;3.33;;
70543;SDS011;58097;48.364;-1.224;2023-08-12T06:55:51;15.27;;;4.00;;
70543;SDS011;58097;48.364;-1.224;2023-08-12T06:58:16;7.78;;;3.33;;
70543;SDS011;58097;48.364;-1.224;2023-08-12T07:00:42;10.45;;;3.28;;
70543;SDS011;58097;48.364;-1.224;2023-08-12T07:03:08;5.05;;;2.83;;
70543;SDS011;58097;48.364;-1.224;2023-08-12T07:05:33;8.38;;;3.38;;
70543;SDS011;58097;48.364;-1.224;2023-08-12T07:07:59;9.40;;;3.60;;
70543;SDS011;58097;48.364;-1.224;2023-08-12T07:10:24;9.43;;;3.70;;
70543;SDS011;58097;48.364;-1.224;2023-08-12T07:12:50;8.95;;;3.22;;
70543;SDS011;58097;48.364;-1.224;2023-08-12T07:15:15;11.40;;;3.35;;
70543;SDS011;58097;48.364;-1.224;2023-08-12T07:17:41;9.82;;;3.65;;
70543;SDS011;58097;48.364;-1.224;2023-08-12T07:20:06;12.18;;;4.05;;
70543;SDS011;58097;48.364;-1.224;2023-08-12T07:22:32;12.68;;;3.70;;
70543;SDS011;58097;48.364;-1.224;2023-08-12T07:24:58;11.27;;;3.95;;
70543;SDS011;58097;48.364;-1.224;2023-08-12T07:27:25;11.48;;;3.90;;
70543;SDS011;58097;48.364;-1.224;2023-08-12T07:29:51;7.57;;;3.40;;
70543;SDS011;58097;48.364;-1.224;2023-08-12T07:32:17;10.85;;;3.20;;
70543;SDS011;58097;48.364;-1.224;2023-08-12T07:34:43;9.95;;;2.85;;
70543;SDS011;58097;48.364;-1.224;2023-08-12T07:37:09;11.13;;;3.08;;
70543;SDS011;58097;48.364;-1.224;2023-08-12T07:39:34;10.10;;;4.22;;
70543;SDS011;58097;48.364;-1.224;2023-08-12T07:42:00;10.27;;;3.03;;
70543;SDS011;58097;48.364;-1.224;2023-08-12T07:44:25;10.48;;;3.83;;
70543;SDS011;58097;48.364;-1.224;2023-08-12T07:46:50;8.88;;;3.08;;
70543;SDS011;58097;48.364;-1.224;2023-08-12T07:49:16;14.43;;;3.38;;
70543;SDS011;58097;48.364;-1.224;2023-08-12T07:51:41;9.15;;;3.17;;
70543;SDS011;58097;48.364;-1.224;2023-08-12T07:54:06;11.07;;;3.20;;
70543;SDS011;58097;48.364;-1.224;2023-08-12T07:56:32;10.65;;;2.90;;
70543;SDS011;58097;48.364;-1.224;2023-08-12T07:58:57;13.77;;;3.10;;
70543;SDS011;58097;48.364;-1.224;2023-08-12T08:01:22;8.27;;;3.60;;
70543;SDS011;58097;48.364;-1.224;2023-08-12T08:03:48;13.13;;;2.95;;
70543;SDS011;58097;48.364;-1.224;2023-08-12T08:06:13;6.72;;;2.42;;
70543;SDS011;58097;48.364;-1.224;2023-08-12T08:08:39;9.30;;;2.60;;
70543;SDS011;58097;48.364;-1.224;2023-08-12T08:11:04;6.32;;;2.78;;
70543;SDS011;58097;48.364;-1.224;2023-08-12T08:13:30;8.77;;;2.78;;
70543;SDS011;58097;48.364;-1.224;2023-08-12T08:15:55;8.13;;;2.35;;
70543;SDS011;58097;48.364;-1.224;2023-08-12T08:18:21;13.85;;;3.60;;
70543;SDS011;58097;48.364;-1.224;2023-08-12T08:20:46;9.27;;;2.65;;
70543;SDS011;58097;48.364;-1.224;2023-08-12T08:23:12;9.43;;;2.97;;
70543;SDS011;58097;48.364;-1.224;2023-08-12T08:25:37;11.45;;;2.75;;
70543;SDS011;58097;48.364;-1.224;2023-08-12T08:28:02;13.90;;;2.70;;
70543;SDS011;58097;48.364;-1.224;2023-08-12T08:30:28;9.38;;;3.03;;
70543;SDS011;58097;48.364;-1.224;2023-08-12T08:32:54;10.70;;;3.05;;
70543;SDS011;58097;48.364;-1.224;2023-08-12T08:35:19;12.48;;;3.20;;
70543;SDS011;58097;48.364;-1.224;2023-08-12T08:37:45;9.80;;;2.60;;
70543;SDS011;58097;48.364;-1.224;2023-08-12T08:40:10;11.88;;;3.10;;
70543;SDS011;58097;48.364;-1.224;2023-08-12T08:42:36;11.43;;;2.63;;
70543;SDS011;58097;48.364;-1.224;2023-08-12T08:45:02;10.63;;;2.55;;
70543;SDS011;58097;48.364;-1.224;2023-08-12T08:47:29;15.25;;;2.75;;
70543;SDS011;58097;48.364;-1.224;2023-08-12T08:49:54;10.57;;;2.67;;
70543;SDS011;58097;48.364;-1.224;2023-08-12T08:52:21;10.23;;;2.60;;
70543;SDS011;58097;48.364;-1.224;2023-08-12T08:54:48;9.15;;;2.53;;
70543;SDS011;58097;48.364;-1.224;2023-08-12T08:57:13;9.07;;;2.55;;
70543;SDS011;58097;48.364;-1.224;2023-08-12T08:59:39;9.55;;;2.70;;
70543;SDS011;58097;48.364;-1.224;2023-08-12T09:02:04;11.68;;;2.97;;
70543;SDS011;58097;48.364;-1.224;2023-08-12T09:04:31;11.60;;;2.95;;
70543;SDS011;58097;48.364;-1.224;2023-08-12T09:06:57;7.78;;;2.63;;
70543;SDS011;58097;48.364;-1.224;2023-08-12T09:09:24;9.00;;;2.67;;
70543;SDS011;58097;48.364;-1.224;2023-08-12T09:11:50;8.85;;;3.03;;
70543;SDS011;58097;48.364;-1.224;2023-08-12T09:14:17;11.32;;;2.97;;
70543;SDS011;58097;48.364;-1.224;2023-08-12T09:16:43;12.73;;;2.53;;
70543;SDS011;58097;48.364;-1.224;2023-08-12T09:19:08;7.28;;;2.88;;
70543;SDS011;58097;48.364;-1.224;2023-08-12T09:21:34;13.20;;;3.40;;
70543;SDS011;58097;48.364;-1.224;2023-08-12T09:24:03;17.13;;;3.05;;
70543;SDS011;58097;48.364;-1.224;2023-08-12T09:26:29;9.95;;;2.47;;
70543;SDS011;58097;48.364;-1.224;2023-08-12T09:28:55;9.45;;;2.55;;
70543;SDS011;58097;48.364;-1.224;2023-08-12T09:31:24;10.40;;;3.30;;
70543;SDS011;58097;48.364;-1.224;2023-08-12T09:33:51;11.68;;;2.90;;
70543;SDS011;58097;48.364;-1.224;2023-08-12T09:36:17;11.82;;;3.33;;
70543;SDS011;58097;48.364;-1.224;2023-08-12T09:38:44;14.75;;;3.10;;
70543;SDS011;58097;48.364;-1.224;2023-08-12T09:41:10;8.30;;;2.65;;
70543;SDS011;58097;48.364;-1.224;2023-08-12T09:43:39;8.38;;;2.88;;
70543;SDS011;58097;48.364;-1.224;2023-08-12T09:46:06;7.80;;;2.38;;
70543;SDS011;58097;48.364;-1.224;2023-08-12T09:48:35;8.75;;;2.42;;
70543;SDS011;58097;48.364;-1.224;2023-08-12T09:51:00;9.52;;;3.03;;
70543;SDS011;58097;48.364;-1.224;2023-08-12T09:53:26;7.80;;;2.53;;
70543;SDS011;58097;48.364;-1.224;2023-08-12T09:55:52;15.27;;;3.03;;
70543;SDS011;58097;48.364;-1.224;2023-08-12T09:58:18;8.82;;;2.22;;
70543;SDS011;58097;48.364;-1.224;2023-08-12T10:00:46;10.40;;;3.20;;
70543;SDS011;58097;48.364;-1.224;2023-08-12T10:03:14;12.48;;;3.08;;
70543;SDS011;58097;48.364;-1.224;2023-08-12T10:05:42;6.43;;;2.42;;
70543;SDS011;58097;48.364;-1.224;2023-08-12T10:08:08;17.77;;;3.00;;
70543;SDS011;58097;48.364;-1.224;2023-08-12T10:10:35;9.45;;;2.47;;
70543;SDS011;58097;48.364;-1.224;2023-08-12T10:13:01;8.00;;;2.63;;
70543;SDS011;58097;48.364;-1.224;2023-08-12T10:15:27;9.48;;;2.63;;
70543;SDS011;58097;48.364;-1.224;2023-08-12T10:17:53;8.18;;;2.53;;
70543;SDS011;58097;48.364;-1.224;2023-08-12T10:20:21;14.07;;;3.63;;
70543;SDS011;58097;48.364;-1.224;2023-08-12T10:22:49;13.13;;;2.63;;
70543;SDS011;58097;48.364;-1.224;2023-08-12T10:25:15;10.57;;;2.78;;
70543;SDS011;58097;48.364;-1.224;2023-08-12T10:27:43;10.35;;;2.45;;
70543;SDS011;58097;48.364;-1.224;2023-08-12T10:30:09;7.65;;;2.50;;
70543;SDS011;58097;48.364;-1.224;2023-08-12T10:32:35;11.48;;;2.33;;
70543;SDS011;58097;48.364;-1.224;2023-08-12T10:35:01;8.85;;;2.50;;
70543;SDS011;58097;48.364;-1.224;2023-08-12T10:37:30;14.20;;;3.38;;
70543;SDS011;58097;48.364;-1.224;2023-08-12T10:39:57;8.50;;;2.45;;
70543;SDS011;58097;48.364;-1.224;2023-08-12T10:45:15;5.68;;;1.73;;
70543;SDS011;58097;48.364;-1.224;2023-08-12T10:47:48;7.15;;;2.22;;
70543;SDS011;58097;48.364;-1.224;2023-08-12T10:50:34;6.72;;;2.15;;
70543;SDS011;58097;48.364;-1.224;2023-08-12T10:52:59;8.30;;;2.17;;
70543;SDS011;58097;48.364;-1.224;2023-08-12T10:55:49;10.50;;;2.22;;
70543;SDS011;58097;48.364;-1.224;2023-08-12T10:58:23;6.63;;;2.33;;
70543;SDS011;58097;48.364;-1.224;2023-08-12T11:00:53;9.13;;;3.00;;
70543;SDS011;58097;48.364;-1.224;2023-08-12T11:03:22;10.20;;;2.60;;
70543;SDS011;58097;48.364;-1.224;2023-08-12T11:05:48;6.75;;;1.77;;
70543;SDS011;58097;48.364;-1.224;2023-08-12T11:08:13;12.48;;;2.30;;
70543;SDS011;58097;48.364;-1.224;2023-08-12T11:10:39;10.02;;;2.40;;
70543;SDS011;58097;48.364;-1.224;2023-08-12T11:13:05;9.20;;;2.17;;
70543;SDS011;58097;48.364;-1.224;2023-08-12T11:15:41;6.40;;;2.03;;
70543;SDS011;58097;48.364;-1.224;2023-08-12T11:18:12;8.85;;;2.00;;
70543;SDS011;58097;48.364;-1.224;2023-08-12T11:20:39;9.85;;;1.70;;
70543;SDS011;58097;48.364;-1.224;2023-08-12T11:23:06;6.55;;;2.13;;
70543;SDS011;58097;48.364;-1.224;2023-08-12T11:25:32;8.13;;;2.22;;
70543;SDS011;58097;48.364;-1.224;2023-08-12T11:28:00;10.73;;;2.95;;
70543;SDS011;58097;48.364;-1.224;2023-08-12T11:30:26;8.85;;;2.33;;
70543;SDS011;58097;48.364;-1.224;2023-08-12T11:32:52;10.00;;;2.13;;
70543;SDS011;58097;48.364;-1.224;2023-08-12T11:35:19;6.55;;;2.35;;
70543;SDS011;58097;48.364;-1.224;2023-08-12T11:37:47;13.98;;;2.50;;
70543;SDS011;58097;48.364;-1.224;2023-08-12T11:40:14;10.13;;;2.25;;
70543;SDS011;58097;48.364;-1.224;2023-08-12T11:42:41;10.70;;;2.83;;
70543;SDS011;58097;48.364;-1.224;2023-08-12T11:45:09;9.55;;;2.88;;
70543;SDS011;58097;48.364;-1.224;2023-08-12T11:47:36;9.25;;;1.90;;
70543;SDS011;58097;48.364;-1.224;2023-08-12T11:50:04;10.55;;;2.55;;
70543;SDS011;58097;48.364;-1.224;2023-08-12T11:52:33;5.03;;;1.90;;
70543;SDS011;58097;48.364;-1.224;2023-08-12T11:54:59;5.55;;;1.98;;
70543;SDS011;58097;48.364;-1.224;2023-08-12T11:57:25;11.45;;;2.45;;
70543;SDS011;58097;48.364;-1.224;2023-08-12T11:59:51;8.25;;;2.75;;
70543;SDS011;58097;48.364;-1.224;2023-08-12T12:02:16;10.32;;;2.22;;
70543;SDS011;58097;48.364;-1.224;2023-08-12T12:04:42;8.80;;;2.30;;
70543;SDS011;58097;48.364;-1.224;2023-08-12T12:07:18;5.82;;;1.83;;
70543;SDS011;58097;48.364;-1.224;2023-08-12T12:09:44;9.05;;;2.22;;
70543;SDS011;58097;48.364;-1.224;2023-08-12T12:12:10;8.70;;;2.10;;
70543;SDS011;58097;48.364;-1.224;2023-08-12T12:14:35;8.23;;;1.98;;
70543;SDS011;58097;48.364;-1.224;2023-08-12T12:17:06;10.48;;;2.22;;
70543;SDS011;58097;48.364;-1.224;2023-08-12T12:19:34;4.97;;;1.95;;
70543;SDS011;58097;48.364;-1.224;2023-08-12T12:22:01;5.55;;;1.73;;
70543;SDS011;58097;48.364;-1.224;2023-08-12T12:24:30;9.48;;;1.98;;
70543;SDS011;58097;48.364;-1.224;2023-08-12T12:26:56;10.10;;;2.33;;
70543;SDS011;58097;48.364;-1.224;2023-08-12T12:29:21;6.47;;;1.75;;
70543;SDS011;58097;48.364;-1.224;2023-08-12T12:31:47;9.30;;;2.47;;
70543;SDS011;58097;48.364;-1.224;2023-08-12T12:34:12;10.93;;;1.77;;
70543;SDS011;58097;48.364;-1.224;2023-08-12T12:36:39;9.77;;;1.88;;
70543;SDS011;58097;48.364;-1.224;2023-08-12T12:39:05;3.97;;;1.75;;
70543;SDS011;58097;48.364;-1.224;2023-08-12T12:41:31;9.07;;;1.92;;
70543;SDS011;58097;48.364;-1.224;2023-08-12T12:43:59;8.25;;;2.47;;
70543;SDS011;58097;48.364;-1.224;2023-08-12T12:46:26;7.75;;;1.95;;
70543;SDS011;58097;48.364;-1.224;2023-08-12T12:48:51;7.88;;;3.20;;
70543;SDS011;58097;48.364;-1.224;2023-08-12T12:51:16;11.50;;;2.35;;
70543;SDS011;58097;48.364;-1.224;2023-08-12T12:53:42;8.90;;;2.33;;
70543;SDS011;58097;48.364;-1.224;2023-08-12T12:56:07;9.43;;;3.38;;
70543;SDS011;58097;48.364;-1.224;2023-08-12T12:58:33;8.13;;;2.95;;
70543;SDS011;58097;48.364;-1.224;2023-08-12T13:01:00;5.22;;;1.63;;
70543;SDS011;58097;48.364;-1.224;2023-08-12T13:03:25;12.55;;;1.85;;
70543;SDS011;58097;48.364;-1.224;2023-08-12T13:05:51;12.02;;;2.53;;
70543;SDS011;58097;48.364;-1.224;2023-08-12T13:08:16;8.93;;;2.47;;
70543;SDS011;58097;48.364;-1.224;2023-08-12T13:10:42;8.23;;;2.10;;
70543;SDS011;58097;48.364;-1.224;2023-08-12T13:13:07;10.23;;;2.00;;
70543;SDS011;58097;48.364;-1.224;2023-08-12T13:15:33;6.30;;;1.70;;
70543;SDS011;58097;48.364;-1.224;2023-08-12T13:17:59;8.68;;;2.28;;
70543;SDS011;58097;48.364;-1.224;2023-08-12T13:20:24;9.10;;;2.13;;
70543;SDS011;58097;48.364;-1.224;2023-08-12T13:22:50;8.98;;;2.03;;
70543;SDS011;58097;48.364;-1.224;2023-08-12T13:25:15;9.07;;;2.33;;
70543;SDS011;58097;48.364;-1.224;2023-08-12T13:27:41;11.90;;;2.65;;
70543;SDS011;58097;48.364;-1.224;2023-08-12T13:30:07;14.60;;;2.92;;
70543;SDS011;58097;48.364;-1.224;2023-08-12T13:32:33;7.03;;;2.28;;
70543;SDS011;58097;48.364;-1.224;2023-08-12T13:34:58;5.95;;;1.75;;
70543;SDS011;58097;48.364;-1.224;2023-08-12T13:37:23;12.18;;;2.60;;
70543;SDS011;58097;48.364;-1.224;2023-08-12T13:39:49;5.25;;;2.10;;
70543;SDS011;58097;48.364;-1.224;2023-08-12T13:42:14;9.73;;;2.03;;
70543;SDS011;58097;48.364;-1.224;2023-08-12T13:44:39;9.07;;;2.30;;
70543;SDS011;58097;48.364;-1.224;2023-08-12T13:47:05;7.28;;;1.77;;
70543;SDS011;58097;48.364;-1.224;2023-08-12T13:49:31;8.10;;;2.00;;
70543;SDS011;58097;48.364;-1.224;2023-08-12T13:51:56;9.45;;;2.17;;
70543;SDS011;58097;48.364;-1.224;2023-08-12T13:54:24;12.50;;;2.90;;
70543;SDS011;58097;48.364;-1.224;2023-08-12T13:56:49;11.18;;;2.05;;
70543;SDS011;58097;48.364;-1.224;2023-08-12T13:59:14;10.10;;;1.92;;
70543;SDS011;58097;48.364;-1.224;2023-08-12T14:01:40;6.95;;;2.00;;
70543;SDS011;58097;48.364;-1.224;2023-08-12T14:04:05;10.48;;;2.40;;
70543;SDS011;58097;48.364;-1.224;2023-08-12T14:06:30;7.30;;;1.83;;
70543;SDS011;58097;48.364;-1.224;2023-08-12T14:08:56;7.15;;;2.33;;
70543;SDS011;58097;48.364;-1.224;2023-08-12T14:11:21;7.20;;;1.75;;
70543;SDS011;58097;48.364;-1.224;2023-08-12T14:13:46;7.30;;;2.20;;
70543;SDS011;58097;48.364;-1.224;2023-08-12T14:16:12;10.13;;;2.95;;
70543;SDS011;58097;48.364;-1.224;2023-08-12T14:18:37;11.07;;;2.17;;
70543;SDS011;58097;48.364;-1.224;2023-08-12T14:21:03;3.95;;;1.55;;
70543;SDS011;58097;48.364;-1.224;2023-08-12T14:23:29;5.82;;;1.85;;
70543;SDS011;58097;48.364;-1.224;2023-08-12T14:25:54;7.75;;;2.20;;
70543;SDS011;58097;48.364;-1.224;2023-08-12T14:28:20;10.20;;;1.88;;
70543;SDS011;58097;48.364;-1.224;2023-08-12T14:30:45;10.68;;;2.40;;
70543;SDS011;58097;48.364;-1.224;2023-08-12T14:33:10;5.75;;;2.33;;